Terminal Aerodrome Forecast
Issued by NWS Duluth, MN

Home | Current Version | Previous Version | Text Only | Print | Product List | Glossary On
Versions: 1 2 3 4 5 6 7 8 9 10 11 12 13 14 15 16 17
000
FTUS43 KDLH 162300 RRA
TAFINL
TAF
KINL 162346Z 1700/1724 04009KT P6SM BKN150
     FM171000 03011KT P6SM VCSH BKN025
     FM171600 02010KT P6SM BKN045=

USA.gov is the U.S. government's official web portal to all federal, state and local government web resources and services.